Time;durP1;ratioP1;P1;durP2;ratioP2;P2;SDS_P1;SDS_P2;PMS_P1;PMS_P2;Temp;Humidity;BMP_temperature;BMP_pressure;BME280_temperature;BME280_humidity;BME280_pressure;Samples;Min_cycle;Max_cycle;Signal;HPM_P1;HPM_P2
2022/05/09 00:00:09;;;;;;;6.60;5.35;;;;;;;;;;4897605;29;20037;-67
2022/05/09 00:02:36;;;;;;;6.65;5.13;;;;;;;;;;4897705;29;20494;-68
2022/05/09 00:05:02;;;;;;;5.85;5.25;;;;;;;;;;4897900;29;20076;-67
2022/05/09 00:07:28;;;;;;;8.13;5.00;;;;;;;;;;4897685;29;20398;-68
2022/05/09 00:09:55;;;;;;;8.07;5.10;;;;;;;;;;4898173;29;20091;-68
2022/05/09 00:12:21;;;;;;;7.43;5.60;;;;;;;;;;4897179;29;20524;-68
2022/05/09 00:14:47;;;;;;;5.45;4.95;;;;;;;;;;4897777;29;20033;-68
2022/05/09 00:17:14;;;;;;;6.20;5.03;;;;;;;;;;4897612;29;20032;-67
2022/05/09 00:19:40;;;;;;;9.48;5.38;;;;;;;;;;4897634;29;20051;-68
2022/05/09 00:22:06;;;;;;;5.07;4.57;;;;;;;;;;4897494;29;20048;-68
2022/05/09 00:24:33;;;;;;;6.80;5.57;;;;;;;;;;4897597;29;20039;-67
2022/05/09 00:26:59;;;;;;;7.25;5.32;;;;;;;;;;4897078;29;20031;-68
2022/05/09 00:29:26;;;;;;;6.53;5.10;;;;;;;;;;4897259;29;20021;-68
2022/05/09 00:31:55;;;;;;;6.47;5.72;;;;;;;;;;4897267;29;20119;-68
2022/05/09 00:34:21;;;;;;;6.97;5.35;;;;;;;;;;4897603;29;20013;-67
2022/05/09 00:36:49;;;;;;;7.45;5.22;;;;;;;;;;4897677;29;20105;-68
2022/05/09 00:39:15;;;;;;;8.88;6.03;;;;;;;;;;4896555;29;20028;-68
2022/05/09 00:41:43;;;;;;;6.43;5.32;;;;;;;;;;4896860;29;20036;-68
2022/05/09 00:44:18;;;;;;;7.07;5.72;;;;;;;;;;4897016;29;20020;-68
2022/05/09 00:46:46;;;;;;;7.05;5.50;;;;;;;;;;4896950;29;20048;-68
2022/05/09 00:49:15;;;;;;;6.75;5.88;;;;;;;;;;4896948;29;20023;-68
2022/05/09 00:51:43;;;;;;;6.88;5.45;;;;;;;;;;4897871;29;20032;-68
2022/05/09 00:54:10;;;;;;;6.88;5.28;;;;;;;;;;4896769;29;20541;-68
2022/05/09 00:56:41;;;;;;;6.80;5.57;;;;;;;;;;4896564;29;20417;-67
2022/05/09 00:59:10;;;;;;;5.93;5.32;;;;;;;;;;4896944;29;20017;-68
2022/05/09 01:01:38;;;;;;;7.40;6.07;;;;;;;;;;4896899;29;20494;-68
2022/05/09 01:04:12;;;;;;;8.35;5.43;;;;;;;;;;4896980;29;20028;-68
2022/05/09 01:06:38;;;;;;;7.15;5.50;;;;;;;;;;4895519;29;20129;-68
2022/05/09 01:09:05;;;;;;;7.65;5.18;;;;;;;;;;4896811;29;20159;-68
2022/05/09 01:11:32;;;;;;;7.25;5.65;;;;;;;;;;4896577;29;20033;-68
2022/05/09 01:14:02;;;;;;;6.70;5.85;;;;;;;;;;4897008;29;20016;-68
2022/05/09 01:16:28;;;;;;;8.25;5.70;;;;;;;;;;4896768;29;20021;-68
2022/05/09 01:18:58;;;;;;;6.00;5.40;;;;;;;;;;4897292;29;20035;-68
2022/05/09 01:21:27;;;;;;;8.23;5.53;;;;;;;;;;4896992;29;20406;-68
2022/05/09 01:23:54;;;;;;;6.20;5.43;;;;;;;;;;4911070;29;20041;-68
2022/05/09 01:26:20;;;;;;;10.85;6.00;;;;;;;;;;4896113;29;20095;-68
2022/05/09 01:28:47;;;;;;;6.50;5.90;;;;;;;;;;4896448;29;20027;-67
2022/05/09 01:31:16;;;;;;;6.38;5.75;;;;;;;;;;4896792;29;20040;-68
2022/05/09 01:33:46;;;;;;;6.78;5.57;;;;;;;;;;4897259;29;20032;-68
2022/05/09 01:36:16;;;;;;;9.40;5.60;;;;;;;;;;4896395;29;20025;-67
2022/05/09 01:38:46;;;;;;;6.50;5.45;;;;;;;;;;4896123;29;20039;-67
2022/05/09 01:41:12;;;;;;;8.38;5.55;;;;;;;;;;4896366;29;20033;-68
2022/05/09 01:43:39;;;;;;;6.57;5.60;;;;;;;;;;4897010;29;20020;-68
2022/05/09 01:46:08;;;;;;;6.78;5.85;;;;;;;;;;4896719;29;20051;-67
2022/05/09 01:51:19;;;;;;;8.43;5.60;;;;;;;;;;4899689;29;20036;-67
2022/05/09 01:53:50;;;;;;;6.85;5.78;;;;;;;;;;4899680;29;20028;-68
2022/05/09 01:56:21;;;;;;;6.93;6.22;;;;;;;;;;4898816;29;20039;-69
2022/05/09 01:58:48;;;;;;;7.57;5.72;;;;;;;;;;4900126;29;20083;-70
2022/05/09 02:01:16;;;;;;;6.43;5.78;;;;;;;;;;4900170;29;20036;-69
2022/05/09 02:03:45;;;;;;;8.95;6.07;;;;;;;;;;4900645;29;20032;-70
2022/05/09 02:06:11;;;;;;;7.78;5.95;;;;;;;;;;4899617;29;20557;-69
2022/05/09 02:08:38;;;;;;;7.57;6.38;;;;;;;;;;4899378;29;20359;-69
2022/05/09 02:11:05;;;;;;;11.38;6.70;;;;;;;;;;4899790;29;20039;-69
2022/05/09 02:13:32;;;;;;;7.68;6.32;;;;;;;;;;4900098;29;20025;-69
2022/05/09 02:15:58;;;;;;;10.02;6.30;;;;;;;;;;4900378;29;20040;-69
2022/05/09 02:18:25;;;;;;;7.93;5.85;;;;;;;;;;4900172;29;20068;-69
2022/05/09 02:20:51;;;;;;;7.60;6.18;;;;;;;;;;4899546;29;20044;-68
2022/05/09 02:23:18;;;;;;;8.30;5.88;;;;;;;;;;4899201;29;20079;-69
2022/05/09 02:25:45;;;;;;;9.30;6.57;;;;;;;;;;4914024;29;20047;-69
2022/05/09 02:28:12;;;;;;;7.32;6.28;;;;;;;;;;4899504;29;20377;-69
2022/05/09 02:30:39;;;;;;;7.82;6.20;;;;;;;;;;4899974;29;20043;-69
2022/05/09 02:33:06;;;;;;;7.47;6.30;;;;;;;;;;4899356;29;20043;-69
2022/05/09 02:35:33;;;;;;;8.60;6.05;;;;;;;;;;4899174;29;20029;-69
2022/05/09 02:37:59;;;;;;;6.93;6.22;;;;;;;;;;4898995;29;20489;-69
2022/05/09 02:40:26;;;;;;;9.13;6.05;;;;;;;;;;4899350;29;20036;-69
2022/05/09 02:42:53;;;;;;;9.20;6.10;;;;;;;;;;4899882;29;20025;-69
2022/05/09 02:45:20;;;;;;;8.45;5.70;;;;;;;;;;4898946;29;20378;-69
2022/05/09 02:47:47;;;;;;;6.22;5.60;;;;;;;;;;4899134;29;20024;-69
2022/05/09 02:50:17;;;;;;;11.15;6.40;;;;;;;;;;4899041;29;20043;-69
2022/05/09 02:52:43;;;;;;;7.93;6.32;;;;;;;;;;4898892;29;20047;-69
2022/05/09 02:55:11;;;;;;;7.85;6.80;;;;;;;;;;4899334;29;20032;-69
2022/05/09 02:57:37;;;;;;;7.53;6.30;;;;;;;;;;4897753;29;20027;-68
2022/05/09 03:00:05;;;;;;;6.68;6.07;;;;;;;;;;4898861;29;20036;-69
2022/05/09 03:02:32;;;;;;;11.65;6.60;;;;;;;;;;4898235;29;20031;-69
2022/05/09 03:04:59;;;;;;;9.45;6.28;;;;;;;;;;4898868;29;20043;-69
2022/05/09 03:07:25;;;;;;;9.07;6.60;;;;;;;;;;4898637;29;20027;-69
2022/05/09 03:09:51;;;;;;;7.70;6.57;;;;;;;;;;4895566;29;20037;-69
2022/05/09 03:12:19;;;;;;;8.85;6.95;;;;;;;;;;4898591;29;20405;-69
2022/05/09 03:14:46;;;;;;;7.25;6.55;;;;;;;;;;4898672;29;20039;-69
2022/05/09 03:17:12;;;;;;;8.55;6.53;;;;;;;;;;4898510;29;20071;-69
2022/05/09 03:19:39;;;;;;;10.30;6.55;;;;;;;;;;4898818;29;20037;-69
2022/05/09 03:22:05;;;;;;;10.00;6.63;;;;;;;;;;4898144;29;20040;-69
2022/05/09 03:24:32;;;;;;;8.40;6.70;;;;;;;;;;4899215;29;20036;-69
2022/05/09 03:26:59;;;;;;;7.50;6.65;;;;;;;;;;4898602;29;20080;-69
2022/05/09 03:29:26;;;;;;;11.40;7.10;;;;;;;;;;4898261;29;20024;-69
2022/05/09 03:31:53;;;;;;;8.23;6.40;;;;;;;;;;4898479;29;20486;-69
2022/05/09 03:34:20;;;;;;;8.18;6.72;;;;;;;;;;4898503;29;20033;-69
2022/05/09 03:36:46;;;;;;;7.82;6.78;;;;;;;;;;4898487;29;20490;-69
2022/05/09 03:39:13;;;;;;;8.48;6.60;;;;;;;;;;4898135;29;20037;-69
2022/05/09 03:41:39;;;;;;;7.75;6.20;;;;;;;;;;4898081;29;20033;-69
2022/05/09 03:44:06;;;;;;;8.32;6.40;;;;;;;;;;4898287;29;20027;-69
2022/05/09 03:46:33;;;;;;;7.22;6.35;;;;;;;;;;4898123;29;20047;-69
2022/05/09 03:49:01;;;;;;;9.52;6.10;;;;;;;;;;4898405;29;20027;-69
2022/05/09 03:51:28;;;;;;;8.52;6.15;;;;;;;;;;4897341;29;20029;-69
2022/05/09 03:53:54;;;;;;;8.88;6.75;;;;;;;;;;4898279;29;20039;-69
2022/05/09 03:56:21;;;;;;;8.52;6.82;;;;;;;;;;4897929;29;20023;-69
2022/05/09 03:58:47;;;;;;;8.38;6.22;;;;;;;;;;4898097;29;20048;-69
2022/05/09 04:01:13;;;;;;;6.88;6.18;;;;;;;;;;4898167;29;20028;-69
2022/05/09 04:03:40;;;;;;;10.70;7.15;;;;;;;;;;4898380;29;20389;-69
2022/05/09 04:06:06;;;;;;;7.82;6.78;;;;;;;;;;4897557;29;20033;-69
2022/05/09 04:08:32;;;;;;;7.50;6.68;;;;;;;;;;4897636;29;20025;-69
2022/05/09 04:10:59;;;;;;;8.68;6.32;;;;;;;;;;4897656;29;20033;-69
2022/05/09 04:13:25;;;;;;;8.20;6.25;;;;;;;;;;4897839;29;20031;-69
2022/05/09 04:18:39;;;;;;;7.28;6.30;;;;;;;;;;4895874;29;20034;-69
2022/05/09 04:21:06;;;;;;;9.30;6.78;;;;;;;;;;4897437;29;20052;-69
2022/05/09 04:23:33;;;;;;;8.15;6.93;;;;;;;;;;4897298;29;20017;-68
2022/05/09 04:26:00;;;;;;;7.30;6.30;;;;;;;;;;4897320;29;20051;-69
2022/05/09 04:28:26;;;;;;;9.60;7.10;;;;;;;;;;4897670;29;20020;-68
2022/05/09 04:30:53;;;;;;;7.07;6.38;;;;;;;;;;4893900;29;20040;-68
2022/05/09 04:33:20;;;;;;;8.77;7.10;;;;;;;;;;4897198;29;20027;-68
2022/05/09 04:35:47;;;;;;;9.48;7.40;;;;;;;;;;4897309;29;20021;-68
2022/05/09 04:38:23;;;;;;;7.47;6.28;;;;;;;;;;4897076;29;20020;-69
2022/05/09 04:40:54;;;;;;;9.73;7.03;;;;;;;;;;4897012;29;20016;-68
2022/05/09 04:43:25;;;;;;;9.90;7.00;;;;;;;;;;4897129;29;20565;-68
2022/05/09 04:45:51;;;;;;;9.50;6.95;;;;;;;;;;4897802;29;20305;-68
2022/05/09 04:48:19;;;;;;;11.40;6.85;;;;;;;;;;4896567;29;20044;-69
2022/05/09 04:50:45;;;;;;;7.72;6.93;;;;;;;;;;4897177;29;20051;-68
2022/05/09 04:53:11;;;;;;;9.02;6.07;;;;;;;;;;4896902;29;20025;-68
2022/05/09 04:55:38;;;;;;;10.75;6.60;;;;;;;;;;4896881;29;20036;-68
2022/05/09 04:58:05;;;;;;;7.85;6.20;;;;;;;;;;4897011;29;20033;-69
2022/05/09 05:00:31;;;;;;;8.85;7.30;;;;;;;;;;4897228;29;20042;-69
2022/05/09 05:02:58;;;;;;;8.93;7.22;;;;;;;;;;4896459;29;20019;-68
2022/05/09 05:05:25;;;;;;;12.27;6.43;;;;;;;;;;4896697;29;20105;-68
2022/05/09 05:07:52;;;;;;;7.10;6.38;;;;;;;;;;4897008;29;20039;-69
2022/05/09 05:10:19;;;;;;;7.88;6.72;;;;;;;;;;4896683;29;20031;-68
2022/05/09 05:12:45;;;;;;;7.03;6.32;;;;;;;;;;4897323;29;20029;-69
2022/05/09 05:15:12;;;;;;;7.30;6.22;;;;;;;;;;4911196;29;20036;-68
2022/05/09 05:17:39;;;;;;;8.68;6.07;;;;;;;;;;4896242;29;20474;-69
2022/05/09 05:20:09;;;;;;;7.20;6.28;;;;;;;;;;4896330;29;20036;-68
2022/05/09 05:22:40;;;;;;;8.50;6.65;;;;;;;;;;4897001;29;20037;-68
2022/05/09 05:25:06;;;;;;;7.68;6.50;;;;;;;;;;4897982;29;20041;-69
2022/05/09 05:27:33;;;;;;;12.63;7.22;;;;;;;;;;4901244;29;20047;-68
2022/05/09 05:29:59;;;;;;;10.93;6.78;;;;;;;;;;4900280;29;20029;-68
2022/05/09 05:32:34;;;;;;;8.82;6.63;;;;;;;;;;4900051;29;20024;-68
2022/05/09 05:35:00;;;;;;;11.60;7.57;;;;;;;;;;4900638;29;20025;-68
2022/05/09 05:37:27;;;;;;;15.25;6.70;;;;;;;;;;4900395;29;20359;-68
2022/05/09 05:39:53;;;;;;;12.32;6.88;;;;;;;;;;4897139;29;20516;-69
2022/05/09 05:42:21;;;;;;;9.07;6.65;;;;;;;;;;4900464;29;20029;-69
2022/05/09 05:44:48;;;;;;;9.70;6.15;;;;;;;;;;4900158;29;20501;-68
2022/05/09 05:47:16;;;;;;;7.93;5.78;;;;;;;;;;4899719;29;20059;-68
2022/05/09 05:49:43;;;;;;;11.23;6.05;;;;;;;;;;4900097;29;20031;-69
2022/05/09 05:52:11;;;;;;;7.35;6.28;;;;;;;;;;4899233;29;20450;-68
2022/05/09 05:54:40;;;;;;;7.97;6.00;;;;;;;;;;4898767;29;20397;-69
2022/05/09 05:57:17;;;;;;;7.50;6.22;;;;;;;;;;4897850;29;20021;-69
2022/05/09 05:59:54;;;;;;;12.07;6.65;;;;;;;;;;4899196;29;20501;-68
2022/05/09 06:02:20;;;;;;;9.35;6.20;;;;;;;;;;4899347;29;20027;-69
2022/05/09 06:04:47;;;;;;;11.27;5.82;;;;;;;;;;4899819;29;20029;-69
2022/05/09 06:07:14;;;;;;;9.60;5.60;;;;;;;;;;4899873;29;20060;-69
2022/05/09 06:09:40;;;;;;;7.30;5.07;;;;;;;;;;4900043;29;20032;-69
2022/05/09 06:12:07;;;;;;;7.70;5.43;;;;;;;;;;4898186;29;20024;-69
2022/05/09 06:14:34;;;;;;;6.20;4.60;;;;;;;;;;4898809;29;20036;-69
2022/05/09 06:17:00;;;;;;;5.57;4.13;;;;;;;;;;4899245;29;20013;-69
2022/05/09 06:19:27;;;;;;;6.78;4.53;;;;;;;;;;4899492;29;20064;-68
2022/05/09 06:21:54;;;;;;;5.85;4.45;;;;;;;;;;4895669;29;20111;-69
2022/05/09 06:24:20;;;;;;;8.98;4.50;;;;;;;;;;4899252;29;20032;-69
2022/05/09 06:26:48;;;;;;;7.68;4.38;;;;;;;;;;4896738;29;20041;-69
2022/05/09 06:29:14;;;;;;;8.85;3.88;;;;;;;;;;4898623;29;20024;-69
2022/05/09 06:31:41;;;;;;;6.88;4.22;;;;;;;;;;4898218;29;20028;-69
2022/05/09 06:34:11;;;;;;;5.00;4.22;;;;;;;;;;4898798;29;20028;-68
2022/05/09 06:36:38;;;;;;;5.40;3.70;;;;;;;;;;4895762;29;20035;-69
2022/05/09 06:39:05;;;;;;;8.05;3.97;;;;;;;;;;4897971;29;20024;-69
2022/05/09 06:41:32;;;;;;;9.35;3.63;;;;;;;;;;4904051;29;20033;-69
2022/05/09 06:43:58;;;;;;;5.25;3.80;;;;;;;;;;4898593;29;20028;-69
2022/05/09 06:46:25;;;;;;;9.93;3.60;;;;;;;;;;4913643;29;20043;-68
2022/05/09 06:48:52;;;;;;;5.88;3.72;;;;;;;;;;4895122;29;20516;-69
2022/05/09 06:51:18;;;;;;;5.10;3.53;;;;;;;;;;4898405;29;20043;-68
2022/05/09 06:53:44;;;;;;;5.18;3.63;;;;;;;;;;4898775;29;20024;-69
2022/05/09 06:56:11;;;;;;;4.40;3.50;;;;;;;;;;4898472;29;20496;-69
2022/05/09 06:58:38;;;;;;;5.07;3.67;;;;;;;;;;4898040;29;20020;-68
2022/05/09 07:01:15;;;;;;;7.63;3.38;;;;;;;;;;4898201;29;20037;-68
2022/05/09 07:03:41;;;;;;;5.82;3.65;;;;;;;;;;4897351;29;20035;-69
2022/05/09 07:06:08;;;;;;;4.85;3.45;;;;;;;;;;4898344;29;20036;-69
2022/05/09 07:08:35;;;;;;;4.32;3.75;;;;;;;;;;4898241;29;20088;-68
2022/05/09 07:11:02;;;;;;;6.25;3.63;;;;;;;;;;4898189;29;20019;-68
2022/05/09 07:13:28;;;;;;;5.97;3.50;;;;;;;;;;4897205;29;20498;-69
2022/05/09 07:15:57;;;;;;;5.38;3.70;;;;;;;;;;4900966;29;20034;-68
2022/05/09 07:18:28;;;;;;;7.05;3.72;;;;;;;;;;4896569;29;20591;-68
2022/05/09 07:20:56;;;;;;;9.35;3.60;;;;;;;;;;4897169;29;20048;-68
2022/05/09 07:23:23;;;;;;;4.85;3.35;;;;;;;;;;4897115;29;20025;-68
2022/05/09 07:25:50;;;;;;;7.00;3.83;;;;;;;;;;4896332;29;20405;-68
2022/05/09 07:28:19;;;;;;;4.28;3.53;;;;;;;;;;4896454;29;20036;-68
2022/05/09 07:30:46;;;;;;;6.05;3.28;;;;;;;;;;4897781;29;20037;-68
2022/05/09 07:33:15;;;;;;;6.85;3.67;;;;;;;;;;4896722;29;20025;-68
2022/05/09 07:35:42;;;;;;;3.97;3.33;;;;;;;;;;4896843;29;20028;-68
2022/05/09 07:38:08;;;;;;;4.25;2.75;;;;;;;;;;4896564;29;20028;-69
2022/05/09 07:40:35;;;;;;;9.07;3.80;;;;;;;;;;4897239;29;20032;-69
2022/05/09 07:43:01;;;;;;;3.60;2.88;;;;;;;;;;4896658;29;20046;-66
2022/05/09 07:45:28;;;;;;;3.65;2.58;;;;;;;;;;4895189;29;20029;-66
2022/05/09 07:47:54;;;;;;;4.47;2.97;;;;;;;;;;4896105;29;20043;-66
2022/05/09 07:50:20;;;;;;;4.78;3.33;;;;;;;;;;4896494;29;20070;-66
2022/05/09 07:52:47;;;;;;;3.60;2.85;;;;;;;;;;4896454;29;20042;-68
2022/05/09 07:55:15;;;;;;;4.60;2.47;;;;;;;;;;4895827;29;20413;-67
2022/05/09 07:57:41;;;;;;;8.88;2.80;;;;;;;;;;4896270;29;20028;-66
2022/05/09 08:00:10;;;;;;;7.25;2.83;;;;;;;;;;4896683;29;20024;-68
2022/05/09 08:02:40;;;;;;;5.53;2.55;;;;;;;;;;4896551;29;20032;-66
2022/05/09 08:05:09;;;;;;;5.15;2.60;;;;;;;;;;4896047;29;20041;-66
2022/05/09 08:07:36;;;;;;;5.97;2.92;;;;;;;;;;4895601;29;20049;-66
2022/05/09 08:10:03;;;;;;;3.88;2.78;;;;;;;;;;4896014;29;20028;-66
2022/05/09 08:12:30;;;;;;;7.53;2.78;;;;;;;;;;4896153;29;20058;-66
2022/05/09 08:14:56;;;;;;;5.55;2.83;;;;;;;;;;4896023;29;20047;-66
2022/05/09 08:17:22;;;;;;;4.47;2.78;;;;;;;;;;4895991;29;20031;-67
2022/05/09 08:19:55;;;;;;;4.18;2.75;;;;;;;;;;4896047;29;20017;-66
2022/05/09 08:22:22;;;;;;;3.85;2.70;;;;;;;;;;4895880;29;20441;-66
2022/05/09 08:24:48;;;;;;;6.07;2.78;;;;;;;;;;4896413;29;20043;-66
2022/05/09 08:27:15;;;;;;;6.72;2.60;;;;;;;;;;4895878;29;20049;-66
2022/05/09 08:29:41;;;;;;;5.38;3.22;;;;;;;;;;4895710;29;20028;-66
2022/05/09 08:32:07;;;;;;;7.25;2.47;;;;;;;;;;4896006;29;20020;-66
2022/05/09 08:34:34;;;;;;;7.05;2.55;;;;;;;;;;4895524;29;20495;-67
2022/05/09 08:37:00;;;;;;;8.85;2.88;;;;;;;;;;4895735;29;20505;-66
2022/05/09 08:39:27;;;;;;;4.55;2.70;;;;;;;;;;4895822;29;20029;-66
2022/05/09 08:41:59;;;;;;;6.65;2.40;;;;;;;;;;4924582;29;20032;-66
2022/05/09 08:44:29;;;;;;;6.10;2.50;;;;;;;;;;4895727;29;20031;-66
2022/05/09 08:47:04;;;;;;;3.88;2.40;;;;;;;;;;4895553;29;20520;-67
2022/05/09 08:49:49;;;;;;;3.47;2.50;;;;;;;;;;4881270;29;20029;-67
2022/05/09 08:52:15;;;;;;;5.75;2.30;;;;;;;;;;4895428;29;20079;-67
2022/05/09 08:54:42;;;;;;;7.03;2.45;;;;;;;;;;4895994;29;20029;-66
2022/05/09 08:57:11;;;;;;;3.38;2.33;;;;;;;;;;4895490;29;20029;-66
2022/05/09 08:59:41;;;;;;;6.60;2.63;;;;;;;;;;4894517;29;20387;-66
2022/05/09 09:02:15;;;;;;;4.70;2.60;;;;;;;;;;4894806;29;20030;-66
2022/05/09 09:04:43;;;;;;;8.35;2.63;;;;;;;;;;4894932;29;20051;-67
2022/05/09 09:07:12;;;;;;;8.10;3.03;;;;;;;;;;4894594;29;20033;-67
2022/05/09 09:09:51;;;;;;;3.35;2.50;;;;;;;;;;4893664;29;20029;-66
2022/05/09 09:12:24;;;;;;;5.95;2.70;;;;;;;;;;4894885;29;20051;-67
2022/05/09 09:14:54;;;;;;;2.78;2.35;;;;;;;;;;4895157;29;20031;-67
2022/05/09 09:17:29;;;;;;;4.10;2.40;;;;;;;;;;4895152;29;20028;-67
2022/05/09 09:20:04;;;;;;;3.33;2.30;;;;;;;;;;4895339;29;20033;-67
2022/05/09 09:22:34;;;;;;;5.22;2.25;;;;;;;;;;4881127;29;20051;-67
2022/05/09 09:25:00;;;;;;;;;;;;;;;;;;4895326;29;20044;-67
2022/05/09 09:27:36;;;;;;;3.20;2.30;;;;;;;;;;4895564;29;20388;-67
2022/05/09 09:30:10;;;;;;;3.97;2.13;;;;;;;;;;4895387;29;20025;-67
2022/05/09 09:32:39;;;;;;;5.00;2.20;;;;;;;;;;4895312;29;20508;-67
2022/05/09 09:35:14;;;;;;;2.97;2.07;;;;;;;;;;4895268;29;20025;-67
2022/05/09 09:37:50;;;;;;;4.47;2.40;;;;;;;;;;4894253;29;20035;-66
2022/05/09 09:40:17;;;;;;;6.55;2.83;;;;;;;;;;4895287;29;20051;-67
2022/05/09 09:42:43;;;;;;;2.80;1.90;;;;;;;;;;4895808;29;20027;-67
2022/05/09 09:45:20;;;;;;;3.08;2.20;;;;;;;;;;4895265;29;20032;-67
2022/05/09 09:47:46;;;;;;;2.75;2.08;;;;;;;;;;4895066;29;20498;-67
2022/05/09 09:50:12;;;;;;;3.58;2.10;;;;;;;;;;4894506;29;20036;-67
2022/05/09 09:52:41;;;;;;;2.30;2.10;;;;;;;;;;4894739;29;20442;-67
2022/05/09 09:55:08;;;;;;;5.43;2.30;;;;;;;;;;4894955;29;20502;-67
2022/05/09 09:57:38;;;;;;;4.28;2.08;;;;;;;;;;4895255;29;20062;-67
2022/05/09 10:00:17;;;;;;;4.25;1.88;;;;;;;;;;4894880;29;20401;-67
2022/05/09 10:02:44;;;;;;;4.97;2.20;;;;;;;;;;4895271;29;20043;-67
2022/05/09 10:05:12;;;;;;;6.07;2.40;;;;;;;;;;4894988;29;20050;-67
2022/05/09 10:07:43;;;;;;;3.70;2.10;;;;;;;;;;4894565;29;20032;-67
2022/05/09 10:10:23;;;;;;;3.13;2.25;;;;;;;;;;4894694;29;20035;-67
2022/05/09 10:12:51;;;;;;;3.60;2.38;;;;;;;;;;4899011;29;20044;-67
2022/05/09 10:15:24;;;;;;;4.30;2.00;;;;;;;;;;4898247;29;20025;-67
2022/05/09 10:17:50;;;;;;;2.13;1.92;;;;;;;;;;4928046;29;20044;-67
2022/05/09 10:20:27;;;;;;;5.68;2.17;;;;;;;;;;4898210;29;20024;-67
2022/05/09 10:26:07;;;;;;;3.03;1.50;;;;;;;;;;4885945;29;20051;-67
2022/05/09 10:28:38;;;;;;;5.70;2.22;;;;;;;;;;4884461;29;20036;-68
2022/05/09 10:31:11;;;;;;;2.10;1.90;;;;;;;;;;4898022;29;20034;-67
2022/05/09 10:33:41;;;;;;;5.45;1.92;;;;;;;;;;4897130;29;20033;-67
2022/05/09 10:36:17;;;;;;;3.38;1.98;;;;;;;;;;4897802;29;20035;-67
2022/05/09 10:38:46;;;;;;;6.93;1.90;;;;;;;;;;4897931;29;20025;-67
2022/05/09 10:41:20;;;;;;;3.20;1.90;;;;;;;;;;4897268;29;20023;-67
2022/05/09 10:43:50;;;;;;;2.10;1.60;;;;;;;;;;4898170;29;20047;-67
2022/05/09 10:46:18;;;;;;;3.17;1.60;;;;;;;;;;4897366;29;20035;-67
2022/05/09 10:48:59;;;;;;;1.80;1.65;;;;;;;;;;4898438;29;20037;-67
2022/05/09 10:51:32;;;;;;;2.75;1.88;;;;;;;;;;4897417;29;20035;-67
2022/05/09 10:54:11;;;;;;;6.90;2.08;;;;;;;;;;4896690;29;20429;-67
2022/05/09 10:56:50;;;;;;;6.47;1.70;;;;;;;;;;4896835;29;20044;-67
2022/05/09 10:59:26;;;;;;;4.00;1.57;;;;;;;;;;4897509;29;20025;-67
2022/05/09 11:01:57;;;;;;;5.00;1.50;;;;;;;;;;4897799;29;20035;-67
2022/05/09 11:04:24;;;;;;;2.47;1.50;;;;;;;;;;4897304;29;20038;-67
2022/05/09 11:07:09;;;;;;;3.10;1.70;;;;;;;;;;4898361;29;20037;-67
2022/05/09 11:09:36;;;;;;;1.60;1.40;;;;;;;;;;4897685;29;20042;-67
2022/05/09 11:12:14;;;;;;;4.10;1.65;;;;;;;;;;4897355;29;20055;-67
2022/05/09 11:14:47;;;;;;;2.70;1.60;;;;;;;;;;4897345;29;20051;-68
2022/05/09 11:17:32;;;;;;;1.95;1.70;;;;;;;;;;4897048;29;20036;-67
2022/05/09 11:19:58;;;;;;;1.80;1.70;;;;;;;;;;4896970;29;20027;-67
2022/05/09 11:22:35;;;;;;;1.58;1.48;;;;;;;;;;4896445;29;20055;-67
2022/05/09 11:25:01;;;;;;;3.45;1.45;;;;;;;;;;4894428;29;20432;-67
2022/05/09 11:27:42;;;;;;;2.97;1.58;;;;;;;;;;4897368;29;20113;-67
2022/05/09 11:30:18;;;;;;;2.28;1.52;;;;;;;;;;4897404;29;20032;-67
2022/05/09 11:32:46;;;;;;;1.98;1.85;;;;;;;;;;4927409;29;20036;-67
2022/05/09 11:35:12;;;;;;;3.10;1.60;;;;;;;;;;4896150;29;20044;-67
2022/05/09 11:37:46;;;;;;;2.15;1.60;;;;;;;;;;4896745;29;20040;-67
2022/05/09 11:40:19;;;;;;;1.83;1.60;;;;;;;;;;4896882;29;20043;-67
2022/05/09 11:45:50;;;;;;;3.17;1.73;;;;;;;;;;4894811;29;20051;-67
2022/05/09 11:48:19;;;;;;;1.80;1.50;;;;;;;;;;4893706;29;20028;-67
2022/05/09 11:51:03;;;;;;;1.95;1.60;;;;;;;;;;4894558;29;20052;-67
2022/05/09 11:53:32;;;;;;;3.25;1.60;;;;;;;;;;4894245;29;20551;-67
2022/05/09 11:56:05;;;;;;;2.78;1.80;;;;;;;;;;4894405;29;20140;-67
2022/05/09 11:58:37;;;;;;;2.95;1.42;;;;;;;;;;4880154;29;20040;-67
2022/05/09 12:01:04;;;;;;;1.65;1.52;;;;;;;;;;4891156;29;20450;-67
2022/05/09 12:03:39;;;;;;;2.08;1.55;;;;;;;;;;4893971;29;20123;-67
2022/05/09 12:06:06;;;;;;;5.45;1.88;;;;;;;;;;4894385;29;20114;-67
2022/05/09 12:08:46;;;;;;;3.08;1.50;;;;;;;;;;4895239;29;20021;-67
2022/05/09 12:11:18;;;;;;;2.15;1.40;;;;;;;;;;4902213;29;20057;-67
2022/05/09 12:13:47;;;;;;;1.70;1.60;;;;;;;;;;4893355;29;20047;-67
2022/05/09 12:16:14;;;;;;;;;;;;;;;;;;4894190;29;20487;-67
2022/05/09 12:18:57;;;;;;;1.90;1.77;;;;;;;;;;4894246;29;19916;-67
2022/05/09 12:21:29;;;;;;;1.63;1.40;;;;;;;;;;4892435;29;20060;-67
2022/05/09 12:24:10;;;;;;;3.05;1.60;;;;;;;;;;4892518;29;20059;-67
2022/05/09 12:26:38;;;;;;;3.03;1.50;;;;;;;;;;4896300;29;20024;-67
2022/05/09 12:29:17;;;;;;;1.52;1.40;;;;;;;;;;4896214;29;20087;-67
2022/05/09 12:31:48;;;;;;;3.13;1.77;;;;;;;;;;4895145;29;20112;-67
2022/05/09 12:34:16;;;;;;;1.88;1.60;;;;;;;;;;4895419;29;20033;-67
2022/05/09 12:36:44;;;;;;;1.60;1.50;;;;;;;;;;4896427;29;20421;-67
2022/05/09 12:39:30;;;;;;;2.45;1.60;;;;;;;;;;4895568;29;20024;-67
2022/05/09 12:41:59;;;;;;;2.20;1.77;;;;;;;;;;4895221;29;20577;-67
2022/05/09 12:44:25;;;;;;;1.70;1.60;;;;;;;;;;4895799;29;20020;-67
2022/05/09 12:46:53;;;;;;;2.47;1.50;;;;;;;;;;4895269;29;20038;-67
2022/05/09 12:49:21;;;;;;;6.55;1.80;;;;;;;;;;4895489;29;20025;-67
2022/05/09 12:51:50;;;;;;;2.00;1.50;;;;;;;;;;4895936;29;20508;-66
2022/05/09 12:54:19;;;;;;;3.28;1.75;;;;;;;;;;4894177;29;20083;-67
2022/05/09 12:56:51;;;;;;;1.65;1.33;;;;;;;;;;4895343;29;20498;-67
2022/05/09 12:59:18;;;;;;;4.72;1.90;;;;;;;;;;4895209;29;20027;-66
2022/05/09 13:01:50;;;;;;;1.50;1.40;;;;;;;;;;4895059;29;20028;-67
2022/05/09 13:04:25;;;;;;;2.55;1.50;;;;;;;;;;4909989;29;20044;-67
2022/05/09 13:06:53;;;;;;;1.88;1.30;;;;;;;;;;4895823;29;20458;-67
2022/05/09 13:09:27;;;;;;;2.20;1.40;;;;;;;;;;4894936;29;20021;-67
2022/05/09 13:11:57;;;;;;;1.92;1.70;;;;;;;;;;4895424;29;20040;-69
2022/05/09 13:14:44;;;;;;;1.65;1.50;;;;;;;;;;4895409;29;20019;-69
2022/05/09 13:17:13;;;;;;;3.53;1.42;;;;;;;;;;4894688;29;20048;-69
2022/05/09 13:19:45;;;;;;;2.85;1.50;;;;;;;;;;4895202;29;20043;-69
2022/05/09 13:22:11;;;;;;;2.28;1.27;;;;;;;;;;4895117;29;20053;-69
2022/05/09 13:24:38;;;;;;;1.75;1.40;;;;;;;;;;4893502;29;20031;-69
2022/05/09 13:27:05;;;;;;;2.47;1.48;;;;;;;;;;4895056;29;20397;-69
2022/05/09 13:29:33;;;;;;;3.95;1.40;;;;;;;;;;4894886;29;20102;-69
2022/05/09 13:32:01;;;;;;;1.50;1.40;;;;;;;;;;4895567;29;20035;-68
2022/05/09 13:34:33;;;;;;;4.60;1.42;;;;;;;;;;4895084;29;20029;-69
2022/05/09 13:37:01;;;;;;;3.47;1.35;;;;;;;;;;4890603;29;20052;-69
2022/05/09 13:39:39;;;;;;;3.67;1.70;;;;;;;;;;4895545;29;20040;-69
2022/05/09 13:42:20;;;;;;;6.93;1.50;;;;;;;;;;4894233;29;20043;-69
2022/05/09 13:44:47;;;;;;;2.17;1.42;;;;;;;;;;4894727;29;20036;-67
2022/05/09 13:47:15;;;;;;;5.68;1.75;;;;;;;;;;4897321;29;20024;-69
2022/05/09 13:49:41;;;;;;;4.40;1.67;;;;;;;;;;4898853;29;20409;-69
2022/05/09 13:52:09;;;;;;;4.10;1.70;;;;;;;;;;4898938;29;20061;-69
2022/05/09 13:54:42;;;;;;;6.80;2.92;;;;;;;;;;4899540;29;20041;-69
2022/05/09 13:57:09;;;;;;;6.40;2.50;;;;;;;;;;4898303;29;20044;-69
2022/05/09 13:59:38;;;;;;;4.43;1.70;;;;;;;;;;4898333;29;20021;-69
2022/05/09 14:02:04;;;;;;;3.35;1.35;;;;;;;;;;4898475;29;20028;-66
2022/05/09 14:04:31;;;;;;;1.95;1.45;;;;;;;;;;4898521;29;20024;-69
2022/05/09 14:07:37;;;;;;;2.13;1.52;;;;;;;;;;4898872;29;20051;-69
2022/05/09 14:09:48;;;;;;;1.60;1.50;;;;;;;;;;4898933;29;20032;-69
2022/05/09 14:12:18;;;;;;;2.58;1.60;;;;;;;;;;4898613;29;20032;-69
2022/05/09 14:14:46;;;;;;;2.92;1.50;;;;;;;;;;4897576;29;20071;-69
2022/05/09 14:17:25;;;;;;;4.63;1.50;;;;;;;;;;4896539;29;20524;-67
2022/05/09 14:19:53;;;;;;;2.47;1.55;;;;;;;;;;4898323;29;20029;-69
2022/05/09 14:22:21;;;;;;;2.03;1.52;;;;;;;;;;4898082;29;20849;-69
2022/05/09 14:30:31;;;;;;;3.83;1.45;;;;;;;;;;4897717;29;20364;-68
2022/05/09 14:32:57;;;;;;;5.22;1.63;;;;;;;;;;4897870;29;20032;-68
2022/05/09 14:35:44;;;;;;;4.15;1.70;;;;;;;;;;4898162;29;20029;-68
2022/05/09 14:38:26;;;;;;;3.28;1.42;;;;;;;;;;4897803;29;20046;-69
2022/05/09 14:40:52;;;;;;;4.07;1.30;;;;;;;;;;4898476;29;20103;-69
2022/05/09 14:43:31;;;;;;;7.35;1.80;;;;;;;;;;4898505;29;20033;-69
2022/05/09 14:46:02;;;;;;;4.25;1.60;;;;;;;;;;4895748;29;20038;-68
2022/05/09 14:48:30;;;;;;;;;;;;;;;;;;4899342;29;20505;-68
2022/05/09 14:50:59;;;;;;;3.30;1.38;;;;;;;;;;4898919;29;19952;-69
2022/05/09 14:53:33;;;;;;;4.07;1.33;;;;;;;;;;4897904;29;20035;-68
2022/05/09 14:58:47;;;;;;;3.28;1.23;;;;;;;;;;4895978;29;20107;-68
2022/05/09 15:01:13;;;;;;;1.40;1.30;;;;;;;;;;4898699;29;20029;-68
2022/05/09 15:03:41;;;;;;;2.75;1.58;;;;;;;;;;4899358;29;20039;-68
2022/05/09 15:06:08;;;;;;;4.30;1.42;;;;;;;;;;4898403;29;20029;-68
2022/05/09 15:08:35;;;;;;;4.85;1.60;;;;;;;;;;4898209;29;20425;-68
2022/05/09 15:11:13;;;;;;;1.52;1.30;;;;;;;;;;4898045;29;20029;-69
2022/05/09 15:13:41;;;;;;;2.33;1.20;;;;;;;;;;4898348;29;20031;-69